Tiempo atmosférico en la estación meteorológica de Olivenza, Badajoz (93 m.)



Fecha
DESCASC
Temp. máxima en grados centígrados (hora)
DESCASC
Temp. mínima en grados centígrados (hora)
DESCASC
Temp. media en grados centígrados
DESCASC
Racha de viento máxima en m/sg (hora)
DESCASC
Velocidad máxima media en intervalos de 10 minutos(hora)
DESCASC
Precipitaciones diarias en mm
DESCASC
Precipitaciones de 00:00 a 06:00 en mm
DESCASC
Precipitaciones de 06:00 a 12:00 en mm
DESCASC
Precipitaciones de 12:00 a 18:00 en mm
DESCASC
Precipitaciones de 18:00 a 24:00 en mm
DESCASC
20-02-2020 17.9 (16:50) 4.1 (08:30) 11 8.33 (15:30) 6.11 (16:10) 0 0 0 0 0
19-02-2020 17.6 (16:20) 3.5 (07:40) 10.6 8.61 (14:50) 6.39 (12:20) 0 0 0 0 0
18-02-2020 16.6 (16:00) 3.7 (08:20) 10.2 7.5 (21:40) 6.39 (21:40) 0 0 0 0 0
17-02-2020 16.4 (16:40) 8.6 (06:30) 12.5 6.67 (11:30) 4.72 (11:30) 0 0 0 0 0
16-02-2020 20 (16:10) 8.2 (00:00) 14.1 6.67 (15:00) 4.44 (16:50) 0 0 0 0 0
15-02-2020 19.7 (16:50) 5.7 (00:00) 12.7 3.89 (00:40) 3.61 (00:50) 0 0 0 0 0
14-02-2020 17.1 (16:10) 8.2 (00:00) 12.7 6.11 (15:30) 3.89 (12:50) 0.2 0 0.2 0 0
13-02-2020 16.5 (14:30) 10.3 (00:00) 13.4 4.44 (14:30) 2.5 (14:30) 0 0 0 0 0
12-02-2020 13.8 (16:50) 10.1 (00:00) 12 4.44 (04:10) 3.06 (04:00) 0 0 0 0 0
11-02-2020 14.1 (16:50) 8.6 (00:00) 11.4 3.89 (17:20) 2.78 (04:20) 0 0 0 0 0
10-02-2020 19 (17:10) 7.2 (00:00) 13.1 4.72 (12:30) 3.06 (09:00) 0 0 0 0 0
09-02-2020 16.3 (15:50) 10.4 (00:00) 13.3 6.67 (15:40) 3.89 (15:30) 0 0 0 0 0
08-02-2020 14.7 (14:10) 10.1 (00:00) 12.4 7.5 (12:40) 5.28 (12:40) 0.2 0 0 0.2 0
07-02-2020 17.3 (15:20) 9.3 (00:00) 13.3 5.83 (15:50) 3.89 (15:50) 0 0 0 0 0
06-02-2020 17.8 (16:20) 4.5 (00:00) 11.1 5.28 (14:50) 3.61 (13:30) 0 0 0 0 0
05-02-2020 19.1 (16:10) 6.2 (00:00) 12.7 10 (12:30) 8.33 (12:40) 0 0 0 0 0
04-02-2020 21.2 (17:00) 6.8 (00:00) 14 4.17 (08:20) 3.89 (08:30) 0 0 0 0 0
03-02-2020 21.4 (17:00) 7.5 (08:30) 14.4 6.11 (07:00) 5.28 (02:20) 0.2 0 0.2 0 0
02-02-2020 19.6 (15:40) 8.6 (00:00) 14.1 7.5 (12:10) 5.83 (12:10) 0 0 0 0 0
01-02-2020 16.4 (13:00) 12.6 (00:00) 14.5 9.44 (00:20) 6.11 (00:20) 0.4 0.2 0 0 0.2
31-01-2020 15 (16:30) 12 (00:00) 13.5 9.17 (23:10) 6.39 (11:40) 2 0.6 0 0.8 0.6
30-01-2020 15.2 (15:00) 10 (00:00) 12.6 8.61 (12:20) 6.11 (15:20) 0.4 0 0 0 0.4
29-01-2020 16.4 (16:50) 9.9 (00:00) 13.1 6.39 (01:10) 4.17 (01:10) 0 0 0 0 0
28-01-2020 13.9 (16:00) 11.4 (00:00) 12.6 11.39 (02:30) 7.22 (05:00) 1.4 0 1 0.4 0
27-01-2020 14 (17:40) 6.8 (00:00) 10.4 13.06 (14:50) 8.33 (14:00) 0 0 0 0 0
26-01-2020 -- (--) -- (--) -- -- (--) -- (--) -- 0 -- 0 0
25-01-2020 14 (16:30) 7.2 (00:00) 10.6 5.83 (01:50) 3.61 (00:10) 2.2 2.2 0 0 0
24-01-2020 13.4 (14:40) 5.8 (00:00) 9.6 6.94 (15:00) 5 (09:10) 6 0 0 0.2 5.8
23-01-2020 12.9 (15:50) 7 (00:00) 9.9 8.06 (16:00) 5.28 (16:00) 4.8 3.2 1.6 0 0
22-01-2020 9.1 (14:50) 5.3 (00:00) 7.2 9.72 (00:10) 7.78 (00:10) 10.4 0 0.6 2.6 7.2

Gráficas

Temp. máximas Temp. mínimas Temp. medias Precipitaciones Rachas de viento máximas Velocidades máximas media en intervalos de 10 minutos

Datos horarios

Fecha y hora oficial Temperatura (ºC) Velocidad del viento (km/h) Dirección del viento Racha (km/h) Dirección de racha Precipitación (mm) Presión (hPa) Tendencia (hPa) Humedad (%)
2020-02-20 23:00:00 11.7 15 Este 19 Este 0 -- -- 76
2020-02-20 22:00:00 11.7 18 Este 24 Este 0 -- -- 75
2020-02-20 21:00:00 11.5 13 Nordeste 17 Nordeste 0 -- -- 78
2020-02-20 20:00:00 12.3 12 Nordeste 14 Nordeste 0 -- -- 75
2020-02-20 19:00:00 14.2 10 Nordeste 22 Nordeste 0 -- -- 71
2020-02-20 18:00:00 16.9 14 Nordeste 25 Nordeste 0 -- -- 62
2020-02-20 17:00:00 17.6 21 Nordeste 28 Norte 0 -- -- 61
2020-02-20 16:00:00 17.4 19 Nordeste 30 Norte 0 -- -- 62
2020-02-20 15:00:00 17 19 Nordeste 26 Norte 0 -- -- 66
2020-02-20 14:00:00 17.2 13 Nordeste 21 Nordeste 0 -- -- 67
2020-02-20 13:00:00 15.2 13 Nordeste 18 Nordeste 0 -- -- 75
2020-02-20 12:00:00 12.8 12 Nordeste 15 Nordeste 0 -- -- 81
2020-02-20 11:00:00 9.5 11 Nordeste 13 Nordeste 0 -- -- 90
2020-02-20 10:00:00 7.3 9 Nordeste 12 Nordeste 0 -- -- 97
2020-02-20 09:00:00 5.1 10 Este 12 Este 0 -- -- 99
2020-02-20 08:00:00 4.3 9 Nordeste 13 Nordeste 0 -- -- 97
2020-02-20 07:00:00 5.5 7 Nordeste 10 Nordeste 0 -- -- 96
2020-02-20 06:00:00 6 8 Nordeste 13 Nordeste 0 -- -- 95
2020-02-20 05:00:00 6.5 13 Nordeste 16 Nordeste 0 -- -- 93
2020-02-20 04:00:00 6.1 10 Nordeste 13 Nordeste 0 -- -- 90
2020-02-20 03:00:00 6.8 11 Nordeste 14 Nordeste 0 -- -- 91
2020-02-20 02:00:00 7.2 12 Nordeste 14 Nordeste 0 -- -- 89
2020-02-20 01:00:00 7.4 11 Nordeste 15 Nordeste 0 -- -- 88
2020-02-20 00:00:00 9.3 9 Nordeste 15 Este 0 -- -- 79
2020-02-19 23:00:00 10.8 11 Este 19 Sudeste 0 -- -- 75
2020-02-19 22:00:00 11.7 17 Sudeste 19 Este 0 -- -- 71
2020-02-19 21:00:00 11.2 15 Este 17 Este 0 -- -- 76
2020-02-19 20:00:00 12.1 10 Nordeste 15 Nordeste 0 -- -- 73
2020-02-19 19:00:00 13.9 12 Nordeste 16 Este 0 -- -- 69
2020-02-19 18:00:00 16.5 12 Nordeste 19 Nordeste 0 -- -- 62
2020-02-19 17:00:00 17.2 15 Nordeste 23 Nordeste 0 -- -- 61
2020-02-19 16:00:00 17.4 15 Nordeste 28 Nordeste 0 -- -- 61
2020-02-19 15:00:00 17.1 19 Nordeste 31 Nordeste 0 -- -- 64
2020-02-19 14:00:00 16 19 Nordeste 26 Nordeste 0 -- -- 69
2020-02-19 13:00:00 14.6 21 Nordeste 28 Nordeste 0 -- -- 73
2020-02-19 12:00:00 12.8 21 Este 27 Este 0 -- -- 79
2020-02-19 11:00:00 10.1 19 Este 24 Este 0 -- -- 86
2020-02-19 10:00:00 7.4 19 Nordeste 24 Nordeste 0 -- -- 89
2020-02-19 09:00:00 5.4 15 Nordeste 19 Nordeste 0 -- -- 95
2020-02-19 08:00:00 3.6 13 Nordeste 17 Nordeste 0 -- -- 96
2020-02-19 07:00:00 4 13 Este 19 Este 0 -- -- 94
2020-02-19 06:00:00 4.6 16 Este 18 Este 0 -- -- 93
2020-02-19 05:00:00 4.7 12 Nordeste 16 Nordeste 0 -- -- 91
2020-02-19 04:00:00 5.8 10 Nordeste 14 Norte 0 -- -- 86
2020-02-19 03:00:00 6.9 4 Nordeste 12 Este 0 -- -- 82
2020-02-19 02:00:00 7.1 8 Este 14 Nordeste 0 -- -- 83
2020-02-19 01:00:00 7.3 14 Nordeste 20 Nordeste 0 -- -- 81
2020-02-19 00:00:00 8.9 16 Norte 21 Nordeste 0 -- -- 75
2020-02-18 23:00:00 9.4 15 Norte 26 Norte 0 -- -- 73
2020-02-18 22:00:00 10.5 19 Norte 27 Norte 0 -- -- 73
2020-02-18 21:00:00 12.6 17 Norte 24 Norte 0 -- -- 70
2020-02-18 20:00:00 13.7 17 Norte 25 Norte 0 -- -- 67
2020-02-18 19:00:00 14.4 17 Norte 22 Norte 0 -- -- 68
2020-02-18 18:00:00 16.1 15 Norte 21 Nordeste 0 -- -- 63
2020-02-18 17:00:00 16 16 Nordeste 22 Nordeste 0 -- -- 64
2020-02-18 16:00:00 16.6 15 Nordeste 24 Nordeste 0 -- -- 65
2020-02-18 15:00:00 16.2 16 Nordeste 27 Nordeste 0 -- -- 68
2020-02-18 14:00:00 15.6 15 Nordeste 24 Norte 0 -- -- 68
2020-02-18 13:00:00 13.8 16 Nordeste 24 Norte 0 -- -- 73
2020-02-18 12:00:00 11.5 16 Nordeste 22 Norte 0 -- -- 77
2020-02-18 11:00:00 9.5 10 Norte 15 Nordeste 0 -- -- 82
2020-02-18 10:00:00 8.5 8 Nordeste 13 Norte 0 -- -- 85
2020-02-18 09:00:00 4.5 3 Sudoeste 8 Oeste 0 -- -- 99
2020-02-18 08:00:00 3.9 7 Oeste 10 Oeste 0 -- -- 97
2020-02-18 07:00:00 4.6 4 Sudoeste 5 Sudoeste 0 -- -- 96
2020-02-18 06:00:00 5.3 3 Oeste 6 Nordeste 0 -- -- 93
2020-02-18 05:00:00 6.4 6 Nordeste 12 Este 0 -- -- 87
2020-02-18 04:00:00 6.8 10 Nordeste 13 Nordeste 0 -- -- 87
2020-02-18 03:00:00 7.4 9 Nordeste 11 Nordeste 0 -- -- 84
2020-02-18 02:00:00 8.9 4 Norte 6 Norte 0 -- -- 82
2020-02-18 01:00:00 9.4 4 Norte 6 Norte 0 -- -- 83
2020-02-18 00:00:00 9.2 4 Noroeste 6 Noroeste 0 -- -- 87
2020-02-17 23:00:00 9.8 3 Oeste 8 Oeste 0 -- -- 85
2020-02-17 22:00:00 10.4 5 Sudoeste 9 Oeste 0 -- -- 84
2020-02-17 21:00:00 11.2 8 Oeste 12 Oeste 0 -- -- 84
2020-02-17 20:00:00 12.6 6 Noroeste 10 Noroeste 0 -- -- 82
2020-02-17 19:00:00 13.8 5 Oeste 16 Noroeste 0 -- -- 83
2020-02-17 18:00:00 15.3 12 Noroeste 22 Noroeste 0 -- -- 75
2020-02-17 17:00:00 16.2 8 Noroeste 19 Noroeste 0 -- -- 78
2020-02-17 16:00:00 15.5 12 Noroeste 22 Oeste 0 -- -- 84
2020-02-17 15:00:00 15.8 8 Oeste 15 Oeste 0 -- -- 87
2020-02-17 14:00:00 15.4 10 Oeste 17 Sudoeste 0 -- -- 89
2020-02-17 13:00:00 14.6 12 Oeste 21 Sudoeste 0 -- -- 90
2020-02-17 12:00:00 14 13 Sudoeste 24 Oeste 0 -- -- 94
2020-02-17 11:00:00 13.6 9 Sudoeste 18 Sudoeste 0 -- -- 91
2020-02-17 10:00:00 11.8 10 Sudoeste -- -- -- -- -- 94
2020-02-17 09:00:00 10.1 9 Sudoeste 13 Sudoeste 0 -- -- 98
2020-02-17 08:00:00 9.6 5 Oeste 9 Sur 0 -- -- 97
2020-02-17 07:00:00 9.2 5 Sur 9 Sur 0 -- -- 98
2020-02-17 06:00:00 9.7 5 Sur 9 Sur 0 -- -- 97
2020-02-17 05:00:00 9.4 6 Sudoeste 8 Sur 0 -- -- 97
2020-02-17 04:00:00 9.7 6 Sudoeste 9 Sudoeste 0 -- -- 97
2020-02-17 03:00:00 9.9 5 Sur 8 Sudoeste 0 -- -- 96
2020-02-17 02:00:00 9.9 4 Sudoeste 6 Sudoeste 0 -- -- 95
2020-02-17 01:00:00 10.5 4 Sudoeste 5 Sudoeste 0 -- -- 93
2020-02-17 00:00:00 10.7 3 Sudoeste 5 Sur 0 -- -- 91
2020-02-16 23:00:00 11.7 4 Sur 4 Sudeste 0 -- -- 91
2020-02-16 22:00:00 12 2 Oeste 8 Oeste 0 -- -- 89
2020-02-16 21:00:00 12.3 5 Noroeste 11 Norte 0 -- -- 88
2020-02-16 20:00:00 13.5 9 Norte 14 Norte 0 -- -- 85
2020-02-16 19:00:00 16.1 7 Noroeste 12 Noroeste 0 -- -- 79
2020-02-16 18:00:00 18.4 5 Noroeste 16 Noroeste 0 -- -- 71
2020-02-16 17:00:00 18.1 9 Oeste 23 Oeste 0 -- -- 72
2020-02-16 16:00:00 19.7 12 Sudoeste 23 Sudoeste 0 -- -- 63
2020-02-16 15:00:00 18.9 15 Sudoeste 24 Sudoeste 0 -- -- 63
2020-02-16 14:00:00 18 9 Oeste 17 Oeste 0 -- -- 77
2020-02-16 13:00:00 15.5 5 Noroeste 14 Oeste 0 -- -- 84
2020-02-16 12:00:00 14.5 5 Oeste 11 Noroeste 0 -- -- 89
2020-02-16 11:00:00 12.6 2 Sudeste 7 Nordeste 0 -- -- 95
2020-02-16 10:00:00 11.1 0 Calma 4 Noroeste 0 -- -- 100
2020-02-16 09:00:00 8.7 4 Sur 6 Sur 0 -- -- 100
2020-02-16 08:00:00 8.4 3 Sudoeste 6 Oeste 0 -- -- 99
2020-02-16 07:00:00 8.8 4 Noroeste 5 Noroeste 0 -- -- 99
2020-02-16 06:00:00 8.9 0 Calma 5 Sur 0 -- -- 98
2020-02-16 05:00:00 9.1 2 Sudeste 8 Oeste 0 -- -- 96
2020-02-16 04:00:00 10.2 5 Oeste 8 Sudoeste 0 -- -- 96
2020-02-16 03:00:00 9.8 6 Sur 8 Sur 0 -- -- 96
2020-02-16 02:00:00 10.5 5 Sudoeste 9 Sudeste 0 -- -- 91
2020-02-16 01:00:00 11.5 6 Sudeste 9 Sudeste 0 -- -- 88
2020-02-16 00:00:00 12 3 Sur 7 Sur 0 -- -- 85
2020-02-15 23:00:00 12.4 5 Sur 9 Sudeste 0 -- -- 82
2020-02-15 22:00:00 13.9 5 Sur 8 Sur 0 -- -- 75
2020-02-15 21:00:00 14.2 6 Sur 7 Sudoeste 0 -- -- 77
2020-02-15 20:00:00 15.1 4 Sur 7 Sudoeste 0 -- -- 76
2020-02-15 19:00:00 16.9 6 Sudoeste 11 Oeste 0 -- -- 71
2020-02-15 18:00:00 18.8 8 Oeste 12 Oeste 0 -- -- 64
2020-02-15 17:00:00 19.5 8 Oeste 13 Oeste 0 -- -- 62
2020-02-15 16:00:00 19.2 4 Noroeste 11 Norte 0 -- -- 63
2020-02-15 15:00:00 18.6 4 Norte 12 Este 0 -- -- 69
2020-02-15 14:00:00 17.1 6 Nordeste 13 Norte 0 -- -- 74
2020-02-15 13:00:00 15.9 9 Norte 12 Este 0 -- -- 79
2020-02-15 12:00:00 13.3 8 Este 14 Nordeste 0 -- -- 88
2020-02-15 11:00:00 11 10 Nordeste 13 Nordeste 0 -- -- 95
2020-02-15 10:00:00 9 9 Este 12 Este 0 -- -- 100
2020-02-15 09:00:00 5.9 9 Este 10 Este 0 -- -- 100
2020-02-15 08:00:00 6.4 10 Este 12 Este 0 -- -- 100
2020-02-15 07:00:00 6.2 10 Nordeste 12 Este 0 -- -- 99
2020-02-15 06:00:00 7.1 12 Este 13 Este 0 -- -- 99
2020-02-15 05:00:00 7.5 9 Nordeste 10 Nordeste 0 -- -- 98
2020-02-15 04:00:00 8.1 10 Este 12 Este 0 -- -- 97
2020-02-15 03:00:00 9.1 6 Nordeste 9 Nordeste 0 -- -- 91
2020-02-15 02:00:00 11.3 9 Sudeste 13 Sudeste 0 -- -- 86
2020-02-15 01:00:00 9.9 13 Este 14 Este 0 -- -- 90
2020-02-15 00:00:00 10.1 10 Este 12 Este 0 -- -- 90
2020-02-14 23:00:00 10.9 8 Este 9 Nordeste 0 -- -- 87
2020-02-14 22:00:00 11 6 Este 8 Nordeste 0 -- -- 86
2020-02-14 21:00:00 12 7 Nordeste 10 Nordeste 0 -- -- 81
2020-02-14 20:00:00 13.1 8 Norte 13 Norte 0 -- -- 80
2020-02-14 19:00:00 13.3 12 Nordeste 15 Norte 0 -- -- 82
2020-02-14 18:00:00 15.5 12 Norte 18 Norte 0 -- -- 76
2020-02-14 17:00:00 16.5 13 Norte 19 Nordeste 0 -- -- 74
2020-02-14 16:00:00 16.9 10 Nordeste 22 Nordeste 0 -- -- 71
2020-02-14 15:00:00 16.3 11 Nordeste 19 Nordeste 0 -- -- 77
2020-02-14 14:00:00 15.5 13 Nordeste 21 Nordeste 0 -- -- 83
2020-02-14 13:00:00 13.9 14 Nordeste 20 Nordeste 0 -- -- 95
2020-02-14 12:00:00 11.2 9 Este 17 Nordeste 0 -- -- 100
2020-02-14 11:00:00 9.8 13 Nordeste 18 Este 0 -- -- 100
2020-02-14 10:00:00 8.9 10 Este 13 Este 0 -- -- 100
2020-02-14 09:00:00 8.2 4 Este 11 Este 0.2 -- -- 100
2020-02-14 08:00:00 8.6 6 Nordeste 13 Nordeste 0 -- -- 100
2020-02-14 07:00:00 9.4 6 Nordeste 8 Nordeste 0 -- -- 99
2020-02-14 06:00:00 10 3 Noroeste 8 Norte 0 -- -- 99
2020-02-14 05:00:00 9.2 4 Nordeste 11 Nordeste 0 -- -- 97
2020-02-14 04:00:00 9.3 7 Este 9 Este 0 -- -- 93
2020-02-14 03:00:00 10.2 3 Sudeste 6 Sudeste 0 -- -- 96
2020-02-14 02:00:00 9.8 3 Sur 5 Sudoeste 0 -- -- 94
2020-02-14 01:00:00 9.8 4 Sudoeste 6 Sudoeste 0 -- -- 94
2020-02-14 00:00:00 10.3 5 Oeste 6 Oeste 0 -- -- 91
2020-02-13 23:00:00 11 3 Sur 8 Sudeste 0 -- -- 87
2020-02-13 22:00:00 11.3 7 Sudeste 8 Sudeste 0 -- -- 87
2020-02-13 21:00:00 12 0 Calma 8 Sur 0 -- -- 86
2020-02-13 20:00:00 13.2 6 Sur 10 Sudeste 0 -- -- 83
2020-02-13 19:00:00 14.4 7 Sudeste 9 Sudeste 0 -- -- 79
2020-02-13 18:00:00 15.2 2 Norte 14 Norte 0 -- -- 75
2020-02-13 17:00:00 15.7 6 Nordeste 12 Norte 0 -- -- 72
2020-02-13 16:00:00 16 7 Norte 14 Norte 0 -- -- 70
2020-02-13 15:00:00 15.5 5 Noroeste 16 Oeste 0 -- -- 71
2020-02-13 14:00:00 15.7 6 Oeste 13 Noroeste 0 -- -- 71
2020-02-13 13:00:00 14.1 6 Sudoeste 13 Sudoeste 0 -- -- 83
2020-02-13 12:00:00 12.6 7 Oeste 12 Oeste 0 -- -- 90
2020-02-13 11:00:00 12 5 Oeste 9 Oeste 0 -- -- 90
2020-02-13 10:00:00 11.5 0 Calma 4 Sudoeste 0 -- -- 96
2020-02-13 09:00:00 11.1 0 Calma 5 Noroeste 0 -- -- 99
2020-02-13 08:00:00 11.1 2 Oeste 6 Oeste 0 -- -- 99
2020-02-13 07:00:00 11.2 5 Oeste 7 Oeste 0 -- -- 98
2020-02-13 06:00:00 11.2 4 Sudoeste 6 Sudoeste 0 -- -- 98
2020-02-13 05:00:00 11.2 5 Sudoeste 9 Sudoeste 0 -- -- 99
2020-02-13 04:00:00 11.3 4 Sudoeste 6 Sudoeste 0 -- -- 99
2020-02-13 03:00:00 11.3 3 Sudoeste -- -- 0 -- -- 99
2020-02-13 02:00:00 11.3 2 Sudoeste 3 Oeste 0 -- -- 98
2020-02-13 01:00:00 11.4 2 Sur 3 Sur 0 -- -- 98
2020-02-13 00:00:00 11.3 2 Este 5 Sudeste 0 -- -- 99
2020-02-12 23:00:00 11.4 3 Este 5 Este 0 -- -- 98
2020-02-12 22:00:00 11.4 3 Nordeste 8 Nordeste 0 -- -- 98
2020-02-12 21:00:00 11.4 3 Nordeste 9 Norte 0 -- -- 97
2020-02-12 20:00:00 12 7 Norte 9 Norte 0 -- -- 94
2020-02-12 19:00:00 12.5 3 Norte 6 Norte 0 -- -- 89
2020-02-12 18:00:00 13.8 0 Calma 8 Noroeste 0 -- -- 81
2020-02-12 17:00:00 13.7 5 Norte 7 Norte 0 -- -- 82
2020-02-12 16:00:00 13.2 4 Oeste 8 Oeste 0 -- -- 85
2020-02-12 15:00:00 13.2 5 Norte 14 Noroeste 0 -- -- 87
2020-02-12 14:00:00 12.7 5 Noroeste 7 Noroeste 0 -- -- 90
2020-02-12 13:00:00 12.2 0 Calma 8 Norte 0 -- -- 91
2020-02-12 12:00:00 -- -- -- -- -- -- -- -- --
2020-02-12 11:00:00 -- -- -- -- -- -- -- -- --
2020-02-12 10:00:00 -- -- -- -- -- -- -- -- --
2020-02-12 09:00:00 -- -- -- -- -- -- -- -- --
2020-02-12 08:00:00 -- -- -- -- -- -- -- -- --
2020-02-12 07:00:00 -- -- -- -- -- -- -- -- --
2020-02-12 06:00:00 -- -- -- -- -- -- -- -- --
2020-02-12 05:00:00 -- -- -- -- -- -- -- -- --
2020-02-12 04:00:00 -- -- -- -- -- -- -- -- --
2020-02-12 03:00:00 -- -- -- -- -- -- -- -- --
2020-02-12 02:00:00 -- -- -- -- -- -- -- -- --
2020-02-12 01:00:00 -- -- -- -- -- -- -- -- --
2020-02-12 00:00:00 -- -- -- -- -- -- -- -- --
2020-02-11 23:00:00 -- -- -- -- -- -- -- -- --
2020-02-11 22:00:00 -- -- -- -- -- -- -- -- --
2020-02-11 21:00:00 -- -- -- -- -- -- -- -- --
2020-02-11 20:00:00 -- -- -- -- -- -- -- -- --
2020-02-11 19:00:00 -- -- -- -- -- -- -- -- --
2020-02-11 18:00:00 -- -- -- -- -- -- -- -- --
2020-02-11 17:00:00 -- -- -- -- -- -- -- -- --
2020-02-11 16:00:00 -- -- -- -- -- -- -- -- --
2020-02-11 15:00:00 -- -- -- -- -- -- -- -- --
2020-02-11 14:00:00 -- -- -- -- -- -- -- -- --
2020-02-11 13:00:00 -- -- -- -- -- -- -- -- --
2020-02-11 12:00:00 -- -- -- -- -- -- -- -- --
2020-02-11 11:00:00 -- -- -- -- -- -- -- -- --
2020-02-11 10:00:00 -- -- -- -- -- -- -- -- --
2020-02-11 09:00:00 -- -- -- -- -- -- -- -- --
2020-02-11 08:00:00 -- -- -- -- -- -- -- -- --
2020-02-11 07:00:00 -- -- -- -- -- -- -- -- --
2020-02-11 06:00:00 -- -- -- -- -- -- -- -- --
2020-02-11 05:00:00 -- -- -- -- -- -- -- -- --
2020-02-11 04:00:00 -- -- -- -- -- -- -- -- --
2020-02-11 03:00:00 -- -- -- -- -- -- -- -- --
2020-02-11 02:00:00 -- -- -- -- -- -- -- -- --
2020-02-11 01:00:00 -- -- -- -- -- -- -- -- --
2020-02-11 00:00:00 -- -- -- -- -- -- -- -- --
2020-02-10 23:00:00 -- -- -- -- -- -- -- -- --
2020-02-10 22:00:00 -- -- -- -- -- -- -- -- --
2020-02-10 21:00:00 -- -- -- -- -- -- -- -- --
2020-02-10 20:00:00 -- -- -- -- -- -- -- -- --
2020-02-10 19:00:00 -- -- -- -- -- -- -- -- --
2020-02-10 18:00:00 -- -- -- -- -- -- -- -- --
2020-02-10 17:00:00 -- -- -- -- -- -- -- -- --
2020-02-10 16:00:00 -- -- -- -- -- -- -- -- --
2020-02-10 15:00:00 -- -- -- -- -- -- -- -- --
2020-02-10 14:00:00 -- -- -- -- -- -- -- -- --
2020-02-10 13:00:00 -- -- -- -- -- -- -- -- --
2020-02-10 12:00:00 -- -- -- -- -- -- -- -- --
2020-02-10 11:00:00 -- -- -- -- -- -- -- -- --
2020-02-10 10:00:00 -- -- -- -- -- -- -- -- --
2020-02-10 09:00:00 -- -- -- -- -- -- -- -- --
2020-02-10 08:00:00 -- -- -- -- -- -- -- -- --
2020-02-10 07:00:00 -- -- -- -- -- -- -- -- --
2020-02-10 06:00:00 -- -- -- -- -- -- -- -- --
2020-02-10 05:00:00 -- -- -- -- -- -- -- -- --
2020-02-10 04:00:00 -- -- -- -- -- -- -- -- --
2020-02-10 03:00:00 -- -- -- -- -- -- -- -- --
2020-02-10 02:00:00 -- -- -- -- -- -- -- -- --
2020-02-10 01:00:00 -- -- -- -- -- -- -- -- --
2020-02-10 00:00:00 -- -- -- -- -- -- -- -- --
2020-02-09 23:00:00 -- -- -- -- -- -- -- -- --
2020-02-09 22:00:00 -- -- -- -- -- -- -- -- --
2020-02-09 21:00:00 -- -- -- -- -- -- -- -- --
2020-02-09 20:00:00 -- -- -- -- -- -- -- -- --
2020-02-09 19:00:00 -- -- -- -- -- -- -- -- --
2020-02-09 18:00:00 14.7 10 Oeste 18 Oeste 0 -- -- 79
2020-02-09 17:00:00 15.8 10 Oeste 19 Oeste 0 -- -- 75
2020-02-09 16:00:00 16.2 13 Oeste 24 Oeste 0 -- -- 73
2020-02-09 15:00:00 15.9 4 Oeste 10 Sur 0 -- -- 76
2020-02-09 14:00:00 15 3 Sur 12 Sudoeste 0 -- -- 79
2020-02-09 13:00:00 14.5 0 Calma 7 Oeste 0 -- -- 83
2020-02-09 12:00:00 13.1 3 Noroeste 7 Noroeste 0 -- -- 92
2020-02-09 11:00:00 12.3 3 Sudeste 5 Sudeste 0 -- -- 96
2020-02-09 10:00:00 11.2 3 Este 6 Sudeste 0 -- -- 100
2020-02-09 09:00:00 10.4 5 Sudeste 9 Sur 0 -- -- 100
2020-02-09 08:00:00 10.4 3 Sudoeste 10 Sudoeste 0 -- -- 99
2020-02-09 07:00:00 10.6 5 Sur 10 Oeste 0 -- -- 99
2020-02-09 06:00:00 10.7 8 Sudoeste 13 Sudoeste 0 -- -- 99
2020-02-09 05:00:00 10.9 9 Sudoeste 15 Oeste 0 -- -- 99
2020-02-09 04:00:00 11.6 6 Sudoeste 11 Oeste 0 -- -- 99
2020-02-09 03:00:00 11.4 6 Sur 10 Sur 0 -- -- 99
2020-02-09 02:00:00 11.5 3 Sudeste 13 Sudoeste 0 -- -- 98
2020-02-09 01:00:00 12.2 7 Sudoeste 10 Sudoeste 0 -- -- 99
2020-02-09 00:00:00 12.4 7 Sudoeste 13 Sudoeste 0 -- -- 99
2020-02-08 23:00:00 12.6 10 Sudoeste 20 Sur 0 -- -- 96
2020-02-08 22:00:00 12.3 5 Sudeste 16 Sur 0 -- -- 91
2020-02-08 21:00:00 12.9 9 Sur 14 Sur 0 -- -- 91
2020-02-08 20:00:00 12.4 9 Sur 12 Sur 0 -- -- 93
2020-02-08 19:00:00 13.3 8 Sudeste 12 Sudeste 0 -- -- 90
2020-02-08 18:00:00 14.3 2 Sur 10 Sur 0 -- -- 85
2020-02-08 17:00:00 14.2 6 Sur 15 Sudoeste 0 -- -- 86
2020-02-08 16:00:00 13.5 11 Sudoeste 19 Oeste 0.2 -- -- 90
2020-02-08 15:00:00 13.9 16 Sudoeste 25 Sudoeste 0 -- -- 86
2020-02-08 14:00:00 14.6 12 Sudoeste 24 Sudoeste 0 -- -- 82
2020-02-08 13:00:00 13.3 17 Sudoeste 27 Sudoeste 0 -- -- 91
2020-02-08 12:00:00 12.7 16 Sudoeste 24 Sudoeste 0 -- -- 96
2020-02-08 11:00:00 11.5 16 Sudoeste 24 Sudoeste 0 -- -- 99
2020-02-08 10:00:00 11 14 Sudoeste 21 Sudoeste 0 -- -- 100
2020-02-08 09:00:00 10.5 14 Sudoeste 24 Sudoeste 0 -- -- 100
2020-02-08 08:00:00 10.7 9 Sudoeste 17 Sudoeste 0 -- -- 100
2020-02-08 07:00:00 10.6 11 Sudoeste 18 Sudoeste 0 -- -- 100
2020-02-08 06:00:00 10.5 9 Sur 19 Sudoeste 0 -- -- 100
2020-02-08 05:00:00 10.3 10 Sudoeste 19 Sudoeste 0 -- -- 99
2020-02-08 04:00:00 10.4 11 Oeste 19 Oeste 0 -- -- 96
2020-02-08 03:00:00 10.3 6 Sudoeste 13 Sur 0 -- -- 95
2020-02-08 02:00:00 10.3 6 Sudoeste 12 Sur 0 -- -- 94
2020-02-08 01:00:00 10.8 8 Sur 12 Sudoeste 0 -- -- 93
2020-02-08 00:00:00 10.7 4 Sur 9 Sur 0 -- -- 90
2020-02-07 23:00:00 10.5 7 Sur 10 Oeste 0 -- -- 93
2020-02-07 22:00:00 11.3 4 Sudoeste 16 Sudeste 0 -- -- 87
2020-02-07 21:00:00 12.2 12 Sudeste 16 Sudeste 0 -- -- 84
2020-02-07 20:00:00 13.2 5 Sur 7 Sur 0 -- -- 81
2020-02-07 19:00:00 14.2 4 Sudoeste 14 Oeste 0 -- -- 77
2020-02-07 18:00:00 16.3 9 Oeste 18 Oeste 0 -- -- 69
2020-02-07 17:00:00 16.3 13 Oeste 19 Oeste 0 -- -- 69
2020-02-07 16:00:00 16.6 10 Sudoeste 21 Oeste 0 -- -- 70
2020-02-07 15:00:00 16.6 8 Sur 18 Sur 0 -- -- 72
2020-02-07 14:00:00 15.4 12 Sur 18 Sur 0 -- -- 76
2020-02-07 13:00:00 14.1 5 Sudoeste 10 Sudoeste 0 -- -- 82
2020-02-07 12:00:00 12.4 5 Nordeste 8 Nordeste 0 -- -- 90
2020-02-07 11:00:00 11.7 4 Nordeste 6 Nordeste 0 -- -- 91
2020-02-07 10:00:00 10.2 4 Nordeste 8 Este 0 -- -- 97
2020-02-07 09:00:00 9.7 3 Norte 8 Sudoeste 0 -- -- 94
2020-02-07 08:00:00 10 2 Sur 13 Sur 0 -- -- 93
2020-02-07 07:00:00 9.8 3 Sur 9 Sudoeste 0 -- -- 93
2020-02-07 06:00:00 9.6 7 Sudeste 10 Sudeste 0 -- -- 91
2020-02-07 05:00:00 10.5 6 Sudoeste 11 Sudoeste 0 -- -- 91
2020-02-07 04:00:00 10.6 7 Sudoeste 11 Sudoeste 0 -- -- 91
2020-02-07 03:00:00 10.7 6 Oeste 9 Oeste 0 -- -- 92
2020-02-07 02:00:00 10.9 7 Oeste 9 Oeste 0 -- -- 92
2020-02-07 01:00:00 11 6 Sudoeste 8 Sudoeste 0 -- -- 90
2020-02-07 00:00:00 11.8 2 Nordeste 4 Sudoeste 0 -- -- 88
2020-02-06 23:00:00 12.2 2 Sur 4 Sudeste 0 -- -- 86
2020-02-06 22:00:00 12.5 2 Sudoeste 8 Oeste 0 -- -- 84
2020-02-06 21:00:00 13.2 6 Oeste 9 Oeste 0 -- -- 83
2020-02-06 20:00:00 13.7 4 Noroeste 10 Norte 0 -- -- 79
2020-02-06 19:00:00 15 5 Norte 11 Noroeste 0 -- -- 77
2020-02-06 18:00:00 17.2 4 Noroeste 10 Nordeste 0 -- -- 72
2020-02-06 17:00:00 17.5 8 Nordeste 13 Nordeste 0 -- -- 66
2020-02-06 16:00:00 17.6 9 Nordeste 18 Nordeste 0 -- -- 64
2020-02-06 15:00:00 17.4 13 Nordeste 19 Nordeste 0 -- -- 66
2020-02-06 14:00:00 16.2 12 Nordeste 18 Nordeste 0 -- -- 70
2020-02-06 13:00:00 14.5 11 Nordeste 17 Este 0 -- -- 81
2020-02-06 12:00:00 11.9 12 Nordeste 15 Nordeste 0 -- -- 94
2020-02-06 11:00:00 8.4 10 Nordeste 12 Nordeste 0 -- -- 100
2020-02-06 10:00:00 6.1 10 Este 13 Este 0 -- -- 100
2020-02-06 09:00:00 4.9 10 Este 13 Nordeste 0 -- -- 100
2020-02-06 08:00:00 4.8 10 Este 13 Nordeste 0 -- -- 99
2020-02-06 07:00:00 5.7 9 Este 11 Nordeste 0 -- -- 98
2020-02-06 06:00:00 6.2 7 Nordeste 11 Nordeste 0 -- -- 96
2020-02-06 05:00:00 9 8 Este 11 Este 0 -- -- 95
2020-02-06 04:00:00 8.4 8 Este 12 Este 0 -- -- 93
2020-02-06 03:00:00 9.8 3 Nordeste 5 Nordeste 0 -- -- 90
2020-02-06 02:00:00 10.3 2 Noroeste 5 Norte 0 -- -- 89
2020-02-06 01:00:00 11.2 5 Oeste 10 Oeste 0 -- -- 83
2020-02-06 00:00:00 12.2 4 Sudoeste 8 Sur 0 -- -- 77
2020-02-05 23:00:00 11 6 Sur 16 Este 0 -- -- 79
2020-02-05 22:00:00 11.9 8 Sudeste 13 Este 0 -- -- 78
2020-02-05 21:00:00 13 9 Nordeste 10 Este 0 -- -- 72
2020-02-05 20:00:00 13.4 7 Nordeste 12 Nordeste 0 -- -- 72
2020-02-05 19:00:00 14.5 9 Nordeste 15 Nordeste 0 -- -- 71
2020-02-05 18:00:00 16.7 14 Nordeste 19 Nordeste 0 -- -- 65
2020-02-05 17:00:00 18.4 16 Nordeste 20 Nordeste 0 -- -- 62
2020-02-05 16:00:00 18.8 13 Nordeste 22 Nordeste 0 -- -- 64
2020-02-05 15:00:00 18.2 16 Nordeste 23 Este 0 -- -- 65
2020-02-05 14:00:00 16.6 18 Nordeste 26 Este 0 -- -- 73
2020-02-05 13:00:00 14.9 23 Nordeste 36 Nordeste 0 -- -- 81
2020-02-05 12:00:00 12.8 24 Nordeste 30 Nordeste 0 -- -- 98
2020-02-05 11:00:00 10.1 21 Nordeste 29 Este 0 -- -- 100
2020-02-05 10:00:00 7.8 22 Este 28 Este 0 -- -- 100
2020-02-05 09:00:00 7 21 Este 26 Este 0 -- -- 100
2020-02-05 08:00:00 6.4 17 Este 26 Nordeste 0 -- -- 100
2020-02-05 07:00:00 6.3 19 Nordeste 26 Nordeste 0 -- -- 100
2020-02-05 06:00:00 6.3 15 Nordeste 20 Nordeste 0 -- -- 100
2020-02-05 05:00:00 6.9 16 Nordeste 20 Nordeste 0 -- -- 100
2020-02-05 04:00:00 7.4 14 Nordeste 17 Nordeste 0 -- -- 99
2020-02-05 03:00:00 8.3 10 Nordeste 15 Nordeste 0 -- -- 97
2020-02-05 02:00:00 9.5 13 Nordeste 15 Nordeste 0 -- -- 96
2020-02-05 01:00:00 10.7 9 Este 11 Este 0 -- -- 93
2020-02-05 00:00:00 11.4 9 Este 12 Este 0 -- -- 91
2020-02-04 23:00:00 13.5 4 Nordeste 5 Nordeste 0 -- -- 84
2020-02-04 22:00:00 13.9 3 Este 7 Nordeste 0 -- -- 82
2020-02-04 21:00:00 14.9 5 Norte 9 Norte 0 -- -- 75
2020-02-04 20:00:00 16.2 7 Norte 9 Norte 0 -- -- 81
2020-02-04 19:00:00 18.5 0 Calma 4 Norte 0 -- -- 70
2020-02-04 18:00:00 20.3 4 Norte 7 Norte 0 -- -- 66
2020-02-04 12:00:00 11.7 10 Nordeste 12 Nordeste 0 -- -- 100
2020-02-04 11:00:00 10.8 8 Nordeste 10 Nordeste 0 -- -- 100
2020-02-04 10:00:00 8.7 10 Este 13 Este 0 -- -- 100
2020-02-04 09:00:00 8.6 12 Este 15 Sudeste 0 -- -- 100
2020-02-04 08:00:00 7.7 11 Este 14 Este 0 -- -- 99
2020-02-04 07:00:00 8.1 10 Nordeste 14 Nordeste 0 -- -- 93
2020-02-04 06:00:00 11.3 3 Sudeste -- -- 0 -- -- 94
2020-02-04 05:00:00 10.6 4 Sur 6 Noroeste 0 -- -- 95
2020-02-04 04:00:00 12 5 Sudeste 11 Este 0 -- -- 95
2020-02-04 03:00:00 11.9 10 Este 12 Este 0 -- -- 96
2020-02-04 02:00:00 11.3 10 Este 12 Este 0 -- -- 95
2020-02-04 01:00:00 11.3 9 Este 10 Este 0 -- -- 91
2020-02-04 00:00:00 14 4 Este 9 Sudeste 0 -- -- 85
2020-02-03 23:00:00 15.6 3 Sudeste 11 Este 0 -- -- 76
2020-02-03 22:00:00 14.9 9 Este 11 Este 0 -- -- 81
2020-02-03 21:00:00 15.3 6 Sudeste 8 Sudeste 0 -- -- 79
2020-02-03 20:00:00 16.2 5 Nordeste 8 Nordeste 0 -- -- 76
2020-02-03 19:00:00 18.3 4 Nordeste 5 Nordeste 0 -- -- 66
2020-02-03 18:00:00 21.3 4 Oeste 6 Oeste 0 -- -- 59
2020-02-03 17:00:00 21.4 2 Sudoeste 9 Oeste 0 -- -- 56
2020-02-03 16:00:00 19.9 6 Norte 11 Norte 0 -- -- 67
2020-02-03 15:00:00 19.3 8 Norte 13 Noroeste 0 -- -- 75
2020-02-03 14:00:00 17.6 8 Norte 15 Este 0 -- -- 86
2020-02-03 13:00:00 14.8 10 Este 15 Este 0 -- -- 100
2020-02-03 12:00:00 11.8 6 Nordeste 14 Nordeste 0 -- -- 100
2020-02-03 11:00:00 9.8 12 Nordeste 18 Nordeste 0 -- -- 100
2020-02-03 10:00:00 8.4 12 Nordeste 18 Nordeste 0 -- -- 100
2020-02-03 09:00:00 7.9 16 Nordeste 22 Nordeste 0.2 -- -- 100
2020-02-03 08:00:00 8 15 Este 21 Nordeste 0 -- -- 100
2020-02-03 07:00:00 9 18 Nordeste 22 Nordeste 0 -- -- 100
2020-02-03 06:00:00 9.6 17 Nordeste 22 Este 0 -- -- 100
2020-02-03 05:00:00 9.7 17 Este 22 Nordeste 0 -- -- 100
2020-02-03 04:00:00 9.6 15 Nordeste 22 Nordeste 0 -- -- 100
2020-02-03 03:00:00 10.1 16 Nordeste 20 Este 0 -- -- 100
2020-02-03 02:00:00 10.5 18 Este 20 Nordeste 0 -- -- 99
2020-02-03 01:00:00 10.8 17 Este 19 Nordeste 0 -- -- 99
2020-02-03 00:00:00 11.2 17 Este 19 Este 0 -- -- 99
2020-02-02 23:00:00 11.7 15 Nordeste 19 Este 0 -- -- 97
2020-02-02 22:00:00 12.9 17 Este 19 Este 0 -- -- 96
2020-02-02 21:00:00 13.6 16 Este 18 Este 0 -- -- 94
2020-02-02 20:00:00 14.4 14 Este 18 Este 0 -- -- 91
2020-02-02 19:00:00 15.6 15 Nordeste 18 Nordeste 0 -- -- 88
2020-02-02 18:00:00 18.3 13 Nordeste 20 Nordeste 0 -- -- 80
2020-02-02 17:00:00 19.5 16 Nordeste 21 Nordeste 0 -- -- 73
2020-02-02 16:00:00 19.3 18 Nordeste 24 Nordeste 0 -- -- 75
2020-02-02 15:00:00 19.2 18 Nordeste 26 Nordeste 0 -- -- 75
2020-02-02 14:00:00 18.6 19 Nordeste 25 Este 0 -- -- 77
2020-02-02 13:00:00 17.4 18 Nordeste 27 Este 0 -- -- 81
2020-02-02 12:00:00 15.6 18 Nordeste 24 Nordeste 0 -- -- 88
2020-02-02 11:00:00 12.4 9 Este 13 Nordeste 0 -- -- 96
2020-02-02 10:00:00 9.7 8 Nordeste 11 Nordeste 0 -- -- 100
2020-02-02 09:00:00 8.6 9 Este 13 Este 0 -- -- 98
2020-02-02 08:00:00 10.1 9 Este 15 Sudeste 0 -- -- 91
2020-02-02 07:00:00 11.4 12 Este 15 Sudeste 0 -- -- 95
2020-02-02 06:00:00 10.6 8 Este 13 Este 0 -- -- 96
2020-02-02 05:00:00 10.8 8 Este 12 Este 0 -- -- 97
2020-02-02 04:00:00 11 9 Este 16 Sudeste 0 -- -- 95
2020-02-02 03:00:00 12.3 14 Sudeste 16 Sudeste 0 -- -- 95
2020-02-02 02:00:00 13 10 Sudeste 12 Sudeste 0 -- -- 93
2020-02-02 01:00:00 13.6 6 Este 10 Este 0 -- -- 90
2020-02-02 00:00:00 14.3 3 Nordeste 7 Este 0 -- -- 88
2020-02-01 23:00:00 14.3 3 Este 9 Este 0 -- -- 89
2020-02-01 22:00:00 14.6 5 Este 8 Este 0 -- -- 88
2020-02-01 21:00:00 14.7 0 Calma 4 Este 0 -- -- 89
2020-02-01 20:00:00 14.9 0 Calma 4 Norte 0.2 -- -- 89
2020-02-01 19:00:00 15.2 3 Este 5 Sudoeste 0 -- -- 87
2020-02-01 18:00:00 15.5 3 Sudoeste 8 Sudoeste 0 -- -- 85
2020-02-01 17:00:00 15.8 4 Sudoeste 12 Sudoeste 0 -- -- 84
2020-02-01 16:00:00 16.1 5 Sur 18 Sudoeste 0 -- -- 83
2020-02-01 15:00:00 16.3 8 Sudoeste 16 Sudoeste 0 -- -- 83
2020-02-01 14:00:00 16.3 7 Sudoeste 15 Oeste 0 -- -- 83
2020-02-01 13:00:00 16.4 9 Sudoeste 18 Sur 0 -- -- 83
2020-02-01 12:00:00 15.1 11 Sudoeste 22 Sudoeste 0 -- -- 91
2020-02-01 11:00:00 14.1 12 Sudoeste 20 Sudoeste 0 -- -- 99
2020-02-01 10:00:00 13.3 14 Sudoeste 21 Sudoeste 0 -- -- 100
2020-02-01 09:00:00 12.7 10 Sudoeste 17 Sur 0 -- -- 100
2020-02-01 08:00:00 13 10 Sudoeste 22 Sudoeste 0 -- -- 100
2020-02-01 07:00:00 13.1 13 Sudoeste 21 Sudoeste 0 -- -- 100
2020-02-01 06:00:00 13.1 10 Sudoeste 18 Sudoeste 0.2 -- -- 100
2020-02-01 05:00:00 13.1 13 Sudoeste 25 Sudoeste 0 -- -- 100
2020-02-01 04:00:00 13.1 17 Sudoeste 28 Sudoeste 0 -- -- 100
2020-02-01 03:00:00 13.2 18 Sudoeste 30 Sudoeste 0 -- -- 100
2020-02-01 02:00:00 13.4 21 Sudoeste 30 Sudoeste 0 -- -- 100
2020-02-01 01:00:00 13.5 20 Sudoeste 34 Sudoeste 0 -- -- 100
2020-02-01 00:00:00 13.7 18 Sudoeste 33 Sudoeste 0 -- -- 100
2020-01-31 23:00:00 14.2 20 Sudoeste 30 Sudoeste 0 -- -- 100
2020-01-31 22:00:00 14.5 14 Sudoeste 23 Sudoeste 0.2 -- -- 100
2020-01-31 21:00:00 14.5 17 Sudoeste 27 Sudoeste 0.4 -- -- 100
2020-01-31 20:00:00 14.5 16 Sudoeste 24 Sudoeste 0 -- -- 99
2020-01-31 19:00:00 14.8 13 Sudoeste 21 Sur 0 -- -- 97
2020-01-31 18:00:00 15 13 Sudoeste 20 Sur 0 -- -- 97
2020-01-31 17:00:00 14.8 13 Sudoeste 24 Sudoeste 0 -- -- 97
2020-01-31 16:00:00 14.7 17 Sudoeste 30 Sudoeste 0.2 -- -- 97
2020-01-31 15:00:00 14.2 17 Sudoeste 28 Sudoeste 0 -- -- 99
2020-01-31 14:00:00 14 17 Sudoeste 29 Sudoeste 0.2 -- -- 99
2020-01-31 13:00:00 13.7 16 Sudoeste 27 Sudoeste 0.4 -- -- 99
2020-01-31 12:00:00 13.9 17 Sudoeste 31 Sur 0 -- -- 97
2020-01-31 11:00:00 13 22 Sudoeste 32 Sudoeste 0 -- -- 99
2020-01-31 10:00:00 12.5 17 Sudoeste 28 Sur 0 -- -- 100
2020-01-31 09:00:00 12.2 19 Sudoeste 28 Sudoeste 0 -- -- 100
2020-01-31 08:00:00 12.1 17 Sudoeste 28 Sudoeste 0 -- -- 100
2020-01-31 07:00:00 12.1 17 Sudoeste 24 Sur 0 -- -- 100
2020-01-31 06:00:00 12.1 15 Sudoeste 25 Sudoeste 0 -- -- 100
2020-01-31 05:00:00 12.1 15 Sudoeste 25 Sur 0 -- -- 100
2020-01-31 04:00:00 12.1 17 Sudoeste 25 Sudoeste 0.2 -- -- 100
2020-01-31 03:00:00 12.1 17 Sudoeste 27 Sudoeste 0 -- -- 100
2020-01-31 02:00:00 12.1 19 Sudoeste 26 Sudoeste 0.2 -- -- 100
2020-01-31 01:00:00 12.3 18 Sudoeste 26 Sudoeste 0.2 -- -- 100
2020-01-31 00:00:00 12.3 17 Sudoeste 22 Sudoeste 0 -- -- 99
2020-01-30 23:00:00 12.4 10 Sudoeste 20 Sudoeste 0 -- -- 99
2020-01-30 22:00:00 12.4 10 Sudoeste 16 Sur 0.2 -- -- 99
2020-01-30 21:00:00 12.6 9 Sudoeste 15 Sudoeste 0.2 -- -- 97
2020-01-30 20:00:00 13.8 6 Sudoeste 12 Sudoeste 0 -- -- 87
2020-01-30 19:00:00 14.2 10 Sudoeste 18 Sudoeste 0 -- -- 83
2020-01-30 18:00:00 14.7 11 Sudoeste 23 Sur 0 -- -- 82
2020-01-30 17:00:00 14.9 17 Sudoeste 27 Sudoeste 0 -- -- 80
2020-01-30 16:00:00 14.8 18 Sudoeste 28 Sudoeste 0 -- -- 80
2020-01-30 15:00:00 15.2 18 Sudoeste 30 Sudoeste 0 -- -- 79
2020-01-30 14:00:00 14.8 20 Sudoeste 30 Sudoeste 0 -- -- 82
2020-01-30 13:00:00 13.6 18 Sudoeste 31 Sudoeste 0 -- -- 86
2020-01-30 12:00:00 12.6 19 Sudoeste 27 Sudoeste 0 -- -- 88
2020-01-30 11:00:00 11.9 12 Sudoeste 20 Sur 0 -- -- 90
2020-01-30 10:00:00 11.2 12 Sur 18 Sur 0 -- -- 97
2020-01-30 09:00:00 10.8 12 Sudoeste 19 Sur 0 -- -- 97
2020-01-30 08:00:00 10.7 13 Sur 19 Sur 0 -- -- 98
2020-01-30 07:00:00 10.6 9 Sudoeste 13 Sur 0 -- -- 99
2020-01-30 06:00:00 10.2 5 Sudoeste 9 Sur 0 -- -- 98
2020-01-30 05:00:00 10 4 Sudoeste 8 Sur 0 -- -- 98
2020-01-30 04:00:00 10.1 7 Sur 10 Sur 0 -- -- 96
2020-01-30 03:00:00 10.7 6 Sur 10 Sur 0 -- -- 95
2020-01-30 02:00:00 11.2 8 Sudoeste 12 Sur 0 -- -- 94
2020-01-30 01:00:00 10.9 9 Sur 13 Sur 0 -- -- 94
2020-01-30 00:00:00 11.5 9 Sudoeste 17 Sudoeste 0 -- -- 90
2020-01-29 23:00:00 11.7 7 Sur 10 Sur 0 -- -- 87
2020-01-29 22:00:00 11.5 8 Sur 10 Sur 0 -- -- 88
2020-01-29 21:00:00 11.8 8 Sur 10 Sur 0 -- -- 86
2020-01-29 20:00:00 12.2 7 Sur 9 Sudoeste 0 -- -- 87
2020-01-29 19:00:00 13.3 6 Sudoeste 10 Sudoeste 0 -- -- 84
2020-01-29 18:00:00 14.8 7 Sudoeste 15 Sudoeste 0 -- -- 78
2020-01-29 17:00:00 16.1 9 Sudoeste 19 Sudoeste 0 -- -- 72
2020-01-29 16:00:00 15.7 12 Sudoeste 19 Sudoeste 0 -- -- 74
2020-01-29 15:00:00 16 13 Sudoeste 22 Sudoeste 0 -- -- 75
2020-01-29 14:00:00 14.8 11 Sudoeste 18 Sudoeste 0 -- -- 83
2020-01-29 13:00:00 14.3 11 Sudoeste 16 Sudoeste 0 -- -- 86
2020-01-29 12:00:00 13.5 9 Sudoeste 17 Sudoeste 0 -- -- 94
2020-01-29 11:00:00 12.5 9 Sudoeste 13 Sudoeste 0 -- -- 100
2020-01-29 10:00:00 11 3 Sudoeste 9 Sudoeste 0 -- -- 100
2020-01-29 09:00:00 9.9 5 Sudoeste 7 Sudoeste 0 -- -- 100
2020-01-29 08:00:00 10.4 3 Sudoeste 6 Sudoeste 0 -- -- 100
2020-01-29 07:00:00 10.7 5 Sudoeste 8 Sudoeste 0 -- -- 100
2020-01-29 06:00:00 10.9 6 Sur 9 Sur 0 -- -- 100
2020-01-29 05:00:00 11.3 8 Sudoeste 20 Sudoeste 0 -- -- 100
2020-01-29 04:00:00 11.3 13 Sudoeste 18 Sudoeste 0 -- -- 100
2020-01-29 03:00:00 11.5 10 Sudoeste 15 Sudoeste 0 -- -- 99
2020-01-29 02:00:00 11.9 10 Sudoeste 23 Sudoeste 0 -- -- 100
2020-01-29 01:00:00 12.1 15 Sudoeste 22 Sudoeste 0 -- -- 100
2020-01-29 00:00:00 12.3 13 Sudoeste 18 Sudoeste 0 -- -- 99
2020-01-28 23:00:00 12.4 14 Sudoeste 20 Sudoeste 0 -- -- 99
2020-01-28 22:00:00 12.5 14 Sudoeste 20 Sudoeste 0 -- -- 99
2020-01-28 21:00:00 12.9 13 Sudoeste 21 Sudoeste 0 -- -- 98
2020-01-28 20:00:00 13 15 Sudoeste 22 Sudoeste 0 -- -- 98
2020-01-28 19:00:00 13.6 14 Sudoeste 21 Sudoeste 0 -- -- 97
2020-01-28 18:00:00 13.7 15 Sudoeste 23 Sudoeste 0 -- -- 98
2020-01-28 17:00:00 13.4 17 Sudoeste 29 Sudoeste 0.4 -- -- 98
2020-01-28 16:00:00 13.9 19 Sudoeste 29 Sudoeste 0 -- -- 97
2020-01-28 15:00:00 13.6 21 Sudoeste 31 Sudoeste 0 -- -- 95
2020-01-28 14:00:00 13.6 21 Sudoeste 30 Sudoeste 0 -- -- 93
2020-01-28 13:00:00 13.4 22 Sudoeste 33 Sur 0 -- -- 92
2020-01-28 12:00:00 12.8 22 Sudoeste 33 Sudoeste 0 -- -- 96
2020-01-28 11:00:00 12.5 24 Sudoeste 37 Sudoeste 0 -- -- 98
2020-01-28 10:00:00 11.8 24 Sudoeste 35 Sudoeste 0.2 -- -- 100
2020-01-28 09:00:00 11.6 19 Sudoeste 28 Sudoeste 0 -- -- 100
2020-01-28 08:00:00 11.4 19 Sudoeste 28 Sudoeste 0.6 -- -- 100
2020-01-28 07:00:00 11.6 20 Sudoeste 33 Sudoeste 0.2 -- -- 99
2020-01-28 06:00:00 11.5 24 Sudoeste 35 Sudoeste 0 -- -- 99
2020-01-28 05:00:00 11.6 26 Sudoeste 35 Sudoeste -- -- -- 98
2020-01-28 04:00:00 11.6 25 Sudoeste 38 Sudoeste 0 -- -- 99
2020-01-28 03:00:00 11.7 23 Sudoeste 41 Sudoeste 0 -- -- 96
2020-01-28 02:00:00 11.8 24 Sudoeste 36 Sudoeste 0 -- -- 95
2020-01-28 01:00:00 11.7 24 Sudoeste 37 Sur 0 -- -- 95
2020-01-28 00:00:00 12.1 28 Sudoeste 39 Sur 0 -- -- 91
2020-01-27 23:00:00 12.1 23 Sudoeste 32 Sudoeste 0 -- -- 90
2020-01-27 22:00:00 12.3 22 Sudoeste 35 Sudoeste 0 -- -- 86
2020-01-27 21:00:00 12.7 18 Sudoeste 30 Sudoeste 0 -- -- 81
2020-01-27 20:00:00 13.2 20 Sudoeste 31 Sudoeste 0 -- -- 77
2020-01-27 19:00:00 13.4 18 Sudoeste 30 Sudoeste 0 -- -- 81
2020-01-27 18:00:00 13.8 24 Sudoeste 35 Sudoeste 0 -- -- 81
2020-01-27 17:00:00 13.7 26 Sudoeste 41 Sudoeste 0 -- -- 80
2020-01-27 16:00:00 13.1 28 Sudoeste 45 Sudoeste 0 -- -- 83
2020-01-27 15:00:00 13.1 30 Sudoeste 47 Oeste 0 -- -- 82
2020-01-27 14:00:00 13.3 30 Sudoeste 44 Sudoeste 0 -- -- 81
2020-01-27 13:00:00 13.6 24 Sudoeste 39 Sur 0 -- -- 82
2020-01-27 12:00:00 11.6 26 Sudoeste 37 Sudoeste 0 -- -- 90
2020-01-27 11:00:00 10.6 19 Sur 30 Sur 0 -- -- 93
2020-01-27 10:00:00 9.9 18 Sudoeste 27 Sur 0 -- -- 96
2020-01-27 09:00:00 9.5 16 Sudoeste 26 Sur 0 -- -- 98
2020-01-27 08:00:00 8.8 10 Sudoeste 22 Sudoeste 0 -- -- 99
2020-01-27 07:00:00 7.4 8 Sudoeste 13 Sudoeste 0 -- -- 100
2020-01-27 06:00:00 7.3 5 Sur 9 Sudoeste 0 -- -- 98
2020-01-27 05:00:00 7.3 4 Sur 14 Sudoeste 0 -- -- 96
2020-01-27 04:00:00 8.4 8 Sudoeste 12 Sur 0 -- -- 98
2020-01-27 03:00:00 8 7 Sudoeste 12 Sur 0 -- -- 96
2020-01-27 02:00:00 8 8 Sur 12 Sur 0 -- -- 94
2020-01-27 01:00:00 8.3 7 Sur 11 Sur 0 -- -- 91
2020-01-27 00:00:00 8.8 5 Sudoeste 10 Sudoeste 0 -- -- 92
2020-01-26 23:00:00 8.9 8 Sur 15 Sudoeste 0 -- -- 91
2020-01-26 22:00:00 8.3 8 Sur 12 Sudoeste 0 -- -- 93
2020-01-26 21:00:00 8.7 8 Sur 12 Sur 0 -- -- 92
2020-01-26 20:00:00 9.3 8 Sudoeste 11 Sudoeste 0 -- -- 91
2020-01-26 19:00:00 10.4 9 Sudoeste 17 Sudoeste 0 -- -- 87
2020-01-26 18:00:00 12.3 12 Sudoeste 17 Sudoeste 0 -- -- 78
2020-01-26 17:00:00 13.4 13 Sudoeste 21 Oeste 0 -- -- 72
2020-01-26 16:00:00 13.5 12 Sudoeste 20 Sudoeste 0 -- -- 74
2020-01-26 15:00:00 12.6 12 Sudoeste 23 Oeste 0 -- -- 80
2020-01-26 14:00:00 11.4 11 Sudoeste 20 Sudoeste 0 -- -- 84
2020-01-26 13:00:00 -- -- -- -- -- -- -- -- --
2020-01-26 12:00:00 -- -- -- -- -- -- -- -- --
2020-01-26 11:00:00 -- -- -- -- -- -- -- -- --
2020-01-26 10:00:00 -- -- -- -- -- -- -- -- --
2020-01-26 09:00:00 -- -- -- -- -- -- -- -- --
2020-01-26 08:00:00 -- -- -- -- -- -- -- -- --
2020-01-26 07:00:00 -- -- -- -- -- -- -- -- --
2020-01-26 06:00:00 6.1 10 Sudoeste 17 Sudoeste 0 -- -- 99
2020-01-26 05:00:00 6.5 10 Sudoeste 16 Sudoeste 0 -- -- 99
2020-01-26 04:00:00 6.5 11 Sudoeste 16 Sudoeste 0 -- -- 98
2020-01-26 03:00:00 6.7 10 Sudoeste 14 Sudoeste 0 -- -- 97
2020-01-26 02:00:00 7.1 8 Sudoeste 15 Oeste 0 -- -- 96
2020-01-26 01:00:00 7.6 10 Oeste 18 Sudoeste 0 -- -- 94
2020-01-26 00:00:00 8.1 10 Oeste 16 Oeste 0 -- -- 93
2020-01-25 23:00:00 8.1 6 Sudoeste 9 Sudoeste 0 -- -- 93
2020-01-25 22:00:00 8.5 6 Oeste 10 Oeste 0 -- -- 93
2020-01-25 21:00:00 9.1 5 Oeste 8 Oeste 0 -- -- 90
2020-01-25 20:00:00 9.7 6 Oeste 14 Noroeste 0 -- -- 89
2020-01-25 19:00:00 11 6 Noroeste 15 Noroeste 0 -- -- 83
2020-01-25 18:00:00 11.9 6 Noroeste 10 Noroeste 0 -- -- 82
2020-01-25 17:00:00 13.4 5 Oeste 14 Oeste 0 -- -- 75
2020-01-25 16:00:00 13.2 5 Oeste 13 Oeste 0 -- -- 77
2020-01-25 15:00:00 12.5 4 Oeste 7 Noroeste 0 -- -- 82
2020-01-25 14:00:00 11.5 4 Noroeste 9 Oeste 0 -- -- 88
2020-01-25 13:00:00 11.4 4 Nordeste 8 Nordeste 0 -- -- 90
2020-01-25 12:00:00 10.4 6 Norte 9 Norte 0 -- -- 95
2020-01-25 11:00:00 9 3 Nordeste 8 Nordeste 0 -- -- 99
2020-01-25 10:00:00 8.2 0 Calma 5 Este 0 -- -- 99
2020-01-25 09:00:00 7.4 4 Nordeste 6 Este 0 -- -- 99
2020-01-25 08:00:00 7.8 0 Calma 5 Sur 0 -- -- 97
2020-01-25 07:00:00 8.1 2 Sur 9 Sur 0 -- -- 97
2020-01-25 06:00:00 9.1 8 Sur 17 Sur 0 -- -- 99
2020-01-25 05:00:00 9.2 12 Sur 17 Sur 0 -- -- 99
2020-01-25 04:00:00 9 6 Sur 9 Sudoeste 0 -- -- 99
2020-01-25 03:00:00 9 6 Sudoeste 17 Sudoeste 0 -- -- 99
2020-01-25 02:00:00 8.9 12 Sudoeste 21 Sur 1.2 -- -- 99
2020-01-25 01:00:00 8.4 3 Nordeste 16 Este 1 -- -- 99
2020-01-25 00:00:00 8.5 13 Este 22 Este 0.4 -- -- 98
2020-01-24 23:00:00 8.6 13 Nordeste 19 Nordeste 0.8 -- -- 98
2020-01-24 22:00:00 8.9 17 Este 25 Este 0.8 -- -- 97
2020-01-24 21:00:00 9.5 12 Este 21 Este 1.2 -- -- 96
2020-01-24 20:00:00 9.9 16 Este 22 Este 1.8 -- -- 97
2020-01-24 19:00:00 10.3 11 Este 20 Este 0.8 -- -- 94
2020-01-24 18:00:00 11.3 10 Este 19 Este 0.2 -- -- 91
2020-01-24 17:00:00 11.8 10 Este 18 Sudeste 0 -- -- 84
2020-01-24 16:00:00 12.3 11 Sudeste 23 Sudeste 0 -- -- 79
2020-01-24 15:00:00 13.4 14 Sudeste 25 Sur 0 -- -- 73
2020-01-24 14:00:00 13 11 Sudeste 22 Nordeste 0 -- -- 78
2020-01-24 13:00:00 12.7 14 Este 22 Este 0 -- -- 85
2020-01-24 12:00:00 10.9 14 Este 21 Este 0 -- -- 92
2020-01-24 11:00:00 9 10 Este 17 Este 0 -- -- 95
2020-01-24 10:00:00 7.8 15 Este 21 Este 0 -- -- 98
2020-01-24 09:00:00 6.3 16 Este 19 Este 0 -- -- 98
2020-01-24 08:00:00 6.6 13 Este 18 Sudeste 0 -- -- 98
2020-01-24 07:00:00 6.5 13 Este 17 Este 0 -- -- 98
2020-01-24 06:00:00 7 9 Este 12 Este 0 -- -- 96
2020-01-24 05:00:00 8.1 7 Sur 14 Sur 0 -- -- 93
2020-01-24 04:00:00 8.9 13 Sur 21 Sur 0 -- -- 92
2020-01-24 03:00:00 7.5 8 Sur 15 Sudeste 0 -- -- 95
2020-01-24 02:00:00 7.2 4 Este 8 Este 0 -- -- 94
2020-01-24 01:00:00 8.1 5 Este 9 Sudeste 0 -- -- 93
2020-01-24 00:00:00 7.8 7 Sudeste 11 Sudeste 0 -- -- 93
2020-01-23 23:00:00 8.2 8 Sudeste 14 Sudeste 0 -- -- 91
2020-01-23 22:00:00 8.7 5 Sudeste 11 Este 0 -- -- 90
2020-01-23 21:00:00 8.9 8 Sur 12 Sur 0 -- -- 89
2020-01-23 20:00:00 9.4 8 Sudeste 18 Sudeste 0 -- -- 86
2020-01-23 19:00:00 10.1 10 Sur 23 Sur 0 -- -- 84
2020-01-23 18:00:00 11.9 11 Sur 26 Sudeste 0 -- -- 78
2020-01-23 17:00:00 11.4 16 Sur 28 Sur 0 -- -- 79
2020-01-23 16:00:00 12.7 19 Sur 29 Sur 0 -- -- 74
2020-01-23 15:00:00 11.6 10 Sudeste 23 Sudeste 0 -- -- 84
2020-01-23 14:00:00 11.4 11 Sudeste 19 Sudeste 0 -- -- 88
2020-01-23 13:00:00 10.1 6 Sudeste 14 Sudeste 0 -- -- 95
2020-01-23 12:00:00 9.4 9 Este 14 Este 0.4 -- -- 98
2020-01-23 11:00:00 8.3 8 Este 16 Sudeste 0.2 -- -- 99
2020-01-23 10:00:00 7.6 11 Este 14 Este 0 -- -- 99
2020-01-23 09:00:00 7 6 Este 8 Este 0 -- -- 99
2020-01-23 08:00:00 7.3 4 Nordeste 16 Sudeste 1 -- -- 99
2020-01-23 07:00:00 7.4 3 Este 9 Este 0 -- -- 100
2020-01-23 06:00:00 7.3 6 Este 10 Este 0 -- -- 100
2020-01-23 05:00:00 7.2 5 Nordeste 9 Este 0 -- -- 100
2020-01-23 04:00:00 7.2 8 Este 15 Este 0.2 -- -- 100
2020-01-23 03:00:00 7.3 11 Este 18 Este 0.2 -- -- 100
2020-01-23 02:00:00 7.2 13 Este 19 Este 1.4 -- -- 100
2020-01-23 01:00:00 7.4 14 Este 20 Nordeste 1.4 -- -- 100
2020-01-23 00:00:00 7.7 11 Nordeste 15 Nordeste 1 -- -- 100
2020-01-22 23:00:00 7.6 9 Nordeste 12 Nordeste 1.4 -- -- 100
2020-01-22 22:00:00 7.6 7 Nordeste 9 Nordeste 1.6 -- -- 99
2020-01-22 21:00:00 7.5 0 Calma 4 Nordeste 1.2 -- -- 99
2020-01-22 20:00:00 7.3 2 Nordeste 3 Nordeste 0.6 -- -- 98
2020-01-22 19:00:00 7.4 3 Este 6 Este 1.4 -- -- 97
2020-01-22 18:00:00 7.6 6 Este 14 Sudeste 1.4 -- -- 95
2020-01-22 17:00:00 8.5 5 Este 21 Este 0.6 -- -- 96
2020-01-22 16:00:00 8.6 15 Este 23 Este 0.4 -- -- 94
2020-01-22 15:00:00 9 19 Este 28 Este 0.2 -- -- 91
2020-01-22 14:00:00 8.2 21 Este 31 Este 0 -- -- 94
2020-01-22 13:00:00 7.8 20 Este 30 Este 0 -- -- 96
2020-01-22 12:00:00 7.3 22 Este 30 Este 0.2 -- -- 96
2020-01-22 11:00:00 6.8 18 Este 24 Este 0.4 -- -- 97
2020-01-22 10:00:00 6.1 12 Nordeste 15 Nordeste 0 -- -- 97
2020-01-22 09:00:00 5.3 12 Nordeste 21 Nordeste 0 -- -- 96
2020-01-22 08:00:00 5.3 18 Nordeste 23 Nordeste 0 -- -- 91
2020-01-22 07:00:00 5.7 12 Nordeste 19 Nordeste 0 -- -- 90
2020-01-22 06:00:00 5.7 14 Norte 19 Norte 0 -- -- 89
2020-01-22 05:00:00 6.2 10 Nordeste 15 Este 0 -- -- 88
2020-01-22 04:00:00 6.9 9 Este 24 Nordeste 0 -- -- 83
2020-01-22 03:00:00 7.3 10 Nordeste 21 Nordeste 0 -- -- 83
2020-01-22 02:00:00 7.6 15 Nordeste 23 Nordeste 0 -- -- 81
2020-01-22 01:00:00 7.8 15 Nordeste 35 Nordeste 0 -- -- 80
2020-01-22 00:00:00 7.6 26 Nordeste 33 Nordeste 0 -- -- 81